createdAt,value
2018-09-27T00:00:07.561Z,99.90
2018-09-27T00:02:36.146Z,99.90
2018-09-27T00:05:04.621Z,99.90
2018-09-27T00:07:32.992Z,99.90
2018-09-27T00:10:01.350Z,99.90
2018-09-27T00:12:29.724Z,99.90
2018-09-27T00:14:58.014Z,99.90
2018-09-27T00:17:26.345Z,99.90
2018-09-27T00:19:54.669Z,99.90
2018-09-27T00:22:23.054Z,99.90
2018-09-27T00:24:51.417Z,99.90
2018-09-27T00:27:19.819Z,99.90
2018-09-27T00:29:48.388Z,99.90
2018-09-27T00:32:16.807Z,99.90
2018-09-27T00:34:45.158Z,99.90
2018-09-27T00:37:13.512Z,99.90
2018-09-27T00:39:42.017Z,99.90
2018-09-27T00:42:10.377Z,99.90
2018-09-27T00:44:38.690Z,99.90
2018-09-27T00:47:07.069Z,99.90
2018-09-27T00:49:35.401Z,99.90
2018-09-27T00:52:03.729Z,99.90
2018-09-27T00:54:32.155Z,99.90
2018-09-27T00:57:00.562Z,99.90
2018-09-27T00:59:28.898Z,99.90
2018-09-27T01:01:57.242Z,99.90
2018-09-27T01:04:25.702Z,99.90
2018-09-27T01:06:54.105Z,99.90
2018-09-27T01:09:22.395Z,99.90
2018-09-27T01:11:50.704Z,99.90
2018-09-27T01:14:19.061Z,99.90
2018-09-27T01:16:47.614Z,99.90
2018-09-27T01:19:15.975Z,99.90
2018-09-27T01:21:44.272Z,99.90
2018-09-27T01:24:12.623Z,99.90
2018-09-27T01:26:41.006Z,99.90
2018-09-27T01:29:09.376Z,99.90
2018-09-27T01:31:37.697Z,99.90
2018-09-27T01:34:06.033Z,99.90
2018-09-27T01:36:34.378Z,99.90
2018-09-27T01:39:02.793Z,99.90
2018-09-27T01:41:31.111Z,99.90
2018-09-27T01:43:59.549Z,99.90
2018-09-27T01:46:28.007Z,99.90
2018-09-27T01:48:56.332Z,99.90
2018-09-27T01:51:24.643Z,99.90
2018-09-27T01:53:53.340Z,99.90
2018-09-27T01:56:21.779Z,99.90
2018-09-27T01:58:50.046Z,99.90
2018-09-27T02:01:18.445Z,99.90
2018-09-27T02:03:46.939Z,99.90
2018-09-27T02:06:15.235Z,99.90
2018-09-27T02:08:43.559Z,99.90
2018-09-27T02:11:11.904Z,99.90
2018-09-27T02:13:40.257Z,99.90
2018-09-27T02:16:08.616Z,99.90
2018-09-27T02:18:37.033Z,99.90
2018-09-27T02:21:05.365Z,99.90
2018-09-27T02:23:33.726Z,99.90
2018-09-27T02:26:02.035Z,99.90
2018-09-27T02:28:30.465Z,99.90
2018-09-27T02:30:58.786Z,99.90
2018-09-27T02:33:27.110Z,99.90
2018-09-27T02:35:55.446Z,99.90
2018-09-27T02:38:23.764Z,99.90
2018-09-27T02:40:52.077Z,99.90
2018-09-27T02:43:20.384Z,99.90
2018-09-27T02:45:48.728Z,99.90
2018-09-27T02:48:17.086Z,99.90
2018-09-27T02:50:45.443Z,99.90
2018-09-27T02:53:14.098Z,99.90
2018-09-27T02:55:42.379Z,99.90
2018-09-27T02:58:10.734Z,99.90
2018-09-27T03:00:39.053Z,99.90
2018-09-27T03:03:07.371Z,99.90
2018-09-27T03:05:35.706Z,99.90
2018-09-27T03:08:04.339Z,99.90
2018-09-27T03:10:32.718Z,99.90
2018-09-27T03:13:01.220Z,99.90
2018-09-27T03:15:29.524Z,99.90
2018-09-27T03:17:57.867Z,99.90
2018-09-27T03:20:26.206Z,99.90
2018-09-27T03:22:54.518Z,99.90
2018-09-27T03:25:23.063Z,99.90
2018-09-27T03:27:51.404Z,99.90
2018-09-27T03:30:19.771Z,99.90
2018-09-27T03:32:48.166Z,99.90
2018-09-27T03:35:16.543Z,99.90
2018-09-27T03:37:44.958Z,99.90
2018-09-27T03:40:13.365Z,99.90
2018-09-27T03:42:41.636Z,99.90
2018-09-27T03:45:10.102Z,99.90
2018-09-27T03:47:38.509Z,99.90
2018-09-27T03:50:06.841Z,99.90
2018-09-27T03:52:35.186Z,99.90
2018-09-27T03:55:03.695Z,99.90
2018-09-27T03:57:32.361Z,99.90
2018-09-27T04:00:00.798Z,99.90
2018-09-27T04:02:29.117Z,99.90
2018-09-27T04:04:57.459Z,99.90
2018-09-27T04:07:25.798Z,99.90
2018-09-27T04:09:54.100Z,99.90
2018-09-27T04:12:22.502Z,99.90
2018-09-27T04:14:50.933Z,99.90
2018-09-27T04:17:19.290Z,99.90
2018-09-27T04:19:47.622Z,99.90
2018-09-27T04:22:15.900Z,99.90
2018-09-27T04:24:44.193Z,99.90
2018-09-27T04:27:12.483Z,99.90
2018-09-27T04:29:40.901Z,99.90
2018-09-27T04:32:09.243Z,99.90
2018-09-27T04:34:37.697Z,99.90
2018-09-27T04:37:06.050Z,99.90
2018-09-27T04:39:34.411Z,99.90
2018-09-27T04:42:02.931Z,99.90
2018-09-27T04:44:31.251Z,99.90
2018-09-27T04:46:59.611Z,99.90
2018-09-27T04:49:28.052Z,99.90
2018-09-27T04:51:56.403Z,99.90
2018-09-27T04:54:24.804Z,99.90
2018-09-27T04:56:53.150Z,99.90
2018-09-27T04:59:21.604Z,99.90
2018-09-27T05:01:49.929Z,99.90
2018-09-27T05:04:18.277Z,99.90
2018-09-27T05:06:46.706Z,99.90
2018-09-27T05:09:15.021Z,99.90
2018-09-27T05:11:43.477Z,99.90
2018-09-27T05:14:11.813Z,99.90
2018-09-27T05:16:40.170Z,99.90
2018-09-27T05:19:08.574Z,99.90
2018-09-27T05:21:36.936Z,99.90
2018-09-27T05:24:05.285Z,99.90
2018-09-27T05:26:33.616Z,99.90
2018-09-27T05:29:01.938Z,99.90
2018-09-27T05:31:30.459Z,99.90
2018-09-27T05:33:58.900Z,99.90
2018-09-27T05:36:27.209Z,99.90
2018-09-27T05:38:55.544Z,99.90
2018-09-27T05:41:23.882Z,99.90
2018-09-27T05:43:52.233Z,99.90
2018-09-27T05:46:21.004Z,99.90
2018-09-27T05:48:49.719Z,99.90
2018-09-27T05:51:18.170Z,99.90
2018-09-27T05:53:46.504Z,99.90
2018-09-27T05:56:14.859Z,99.90
2018-09-27T05:58:43.328Z,99.90
2018-09-27T06:01:11.724Z,99.90
2018-09-27T06:03:40.166Z,99.90
2018-09-27T06:06:08.362Z,99.90
2018-09-27T06:08:36.944Z,99.90
2018-09-27T06:11:05.558Z,99.90
2018-09-27T06:13:33.946Z,99.90
2018-09-27T06:16:02.395Z,99.90
2018-09-27T06:18:31.093Z,99.90
2018-09-27T06:21:00.049Z,99.90
2018-09-27T06:23:28.451Z,99.90
2018-09-27T06:25:56.847Z,99.90
2018-09-27T06:28:25.237Z,99.90
2018-09-27T06:30:53.587Z,99.90
2018-09-27T06:33:22.024Z,99.90
2018-09-27T06:35:50.793Z,99.90
2018-09-27T06:38:19.242Z,99.50
2018-09-27T06:40:47.638Z,98.50
2018-09-27T06:43:16.238Z,97.80
2018-09-27T06:45:46.251Z,96.20
2018-09-27T06:48:14.557Z,95.70
2018-09-27T06:50:43.015Z,94.50
2018-09-27T06:53:11.690Z,93.00
2018-09-27T06:55:40.373Z,91.40
2018-09-27T06:58:08.952Z,89.10
2018-09-27T07:00:37.399Z,86.00
2018-09-27T07:03:05.812Z,85.30
2018-09-27T07:05:34.121Z,84.20
2018-09-27T07:08:02.472Z,83.10
2018-09-27T07:10:30.925Z,81.50
2018-09-27T07:12:59.734Z,81.40
2018-09-27T07:15:28.094Z,82.40
2018-09-27T07:17:56.657Z,86.60
2018-09-27T07:20:25.075Z,88.60
2018-09-27T07:22:53.321Z,89.50
2018-09-27T07:25:21.967Z,89.30
2018-09-27T07:27:50.342Z,87.80
2018-09-27T07:30:18.777Z,88.00
2018-09-27T07:32:47.201Z,87.50
2018-09-27T07:35:15.793Z,88.70
2018-09-27T07:37:44.185Z,87.50
2018-09-27T07:40:12.763Z,89.10
2018-09-27T07:42:41.214Z,88.90
2018-09-27T07:45:09.586Z,89.30
2018-09-27T07:47:37.992Z,90.40
2018-09-27T07:50:06.340Z,90.30
2018-09-27T07:52:35.760Z,91.60
2018-09-27T07:55:04.439Z,92.70
2018-09-27T07:57:33.054Z,94.30
2018-09-27T08:00:01.411Z,95.80
2018-09-27T08:02:29.829Z,95.00
2018-09-27T08:04:58.280Z,95.60
2018-09-27T08:07:26.682Z,95.60
2018-09-27T08:09:55.103Z,96.70
2018-09-27T08:12:23.644Z,96.70
2018-09-27T08:14:53.310Z,96.30
2018-09-27T08:17:21.825Z,96.80
2018-09-27T08:19:50.134Z,95.80
2018-09-27T08:22:18.845Z,96.80
2018-09-27T08:24:47.296Z,95.90
2018-09-27T08:27:15.722Z,95.30
2018-09-27T08:29:44.104Z,95.10
2018-09-27T08:32:12.458Z,95.20
2018-09-27T08:34:40.893Z,95.30
2018-09-27T08:37:09.218Z,95.00
2018-09-27T08:39:37.716Z,95.40
2018-09-27T08:42:06.352Z,95.00
2018-09-27T08:44:34.856Z,94.30
2018-09-27T08:47:03.041Z,94.50
2018-09-27T08:49:31.418Z,94.70
2018-09-27T08:51:59.737Z,94.10
2018-09-27T08:54:28.233Z,94.40
2018-09-27T08:56:56.609Z,93.80
2018-09-27T08:59:25.435Z,94.20
2018-09-27T09:01:53.794Z,93.70
2018-09-27T09:04:22.334Z,92.60
2018-09-27T09:06:50.665Z,91.70
2018-09-27T09:09:19.080Z,90.90
2018-09-27T09:11:47.434Z,91.00
2018-09-27T09:14:15.785Z,90.70
2018-09-27T09:16:44.919Z,90.70
2018-09-27T09:19:13.291Z,90.40
2018-09-27T09:21:41.810Z,90.30
2018-09-27T09:24:10.156Z,89.20
2018-09-27T09:26:38.552Z,89.80
2018-09-27T09:29:06.999Z,89.50
2018-09-27T09:31:35.403Z,88.90
2018-09-27T09:34:03.778Z,90.40
2018-09-27T09:36:32.203Z,89.10
2018-09-27T09:39:00.682Z,90.00
2018-09-27T09:41:29.032Z,86.60
2018-09-27T09:43:59.495Z,87.00
2018-09-27T09:46:27.843Z,87.40
2018-09-27T09:48:56.223Z,88.00
2018-09-27T09:51:24.614Z,87.10
2018-09-27T09:53:53.191Z,89.50
2018-09-27T09:56:21.614Z,88.10
2018-09-27T09:58:49.943Z,84.90
2018-09-27T10:01:18.331Z,83.30
2018-09-27T10:03:46.747Z,81.90
2018-09-27T10:06:15.081Z,81.00
2018-09-27T10:08:43.494Z,82.80
2018-09-27T10:11:11.817Z,85.70
2018-09-27T10:13:40.197Z,78.60
2018-09-27T10:16:08.695Z,77.60
2018-09-27T10:18:37.082Z,78.60
2018-09-27T10:21:05.497Z,77.80
2018-09-27T10:23:33.887Z,73.30
2018-09-27T10:26:02.248Z,68.80
2018-09-27T10:28:30.601Z,68.80
2018-09-27T10:30:59.049Z,67.60
2018-09-27T10:33:27.422Z,65.20
2018-09-27T10:35:55.767Z,64.90
2018-09-27T10:38:24.497Z,65.30
2018-09-27T10:40:53.054Z,63.90
2018-09-27T10:43:21.421Z,64.70
2018-09-27T10:45:49.759Z,63.40
2018-09-27T10:48:18.117Z,60.00
2018-09-27T10:50:46.503Z,60.40
2018-09-27T10:53:14.873Z,59.80
2018-09-27T10:55:43.269Z,58.90
2018-09-27T10:58:11.670Z,58.30
2018-09-27T11:00:40.121Z,55.40
2018-09-27T11:03:08.694Z,57.40
2018-09-27T11:05:37.091Z,57.30
2018-09-27T11:08:05.598Z,57.30
2018-09-27T11:10:33.964Z,57.40
2018-09-27T11:13:02.385Z,58.40
2018-09-27T11:15:30.743Z,57.70
2018-09-27T11:17:59.131Z,55.70
2018-09-27T11:20:27.474Z,55.90
2018-09-27T11:22:55.838Z,55.70
2018-09-27T11:25:24.247Z,56.20
2018-09-27T11:27:52.687Z,55.00
2018-09-27T11:30:26.450Z,55.80
2018-09-27T11:32:54.870Z,56.30
2018-09-27T11:35:23.271Z,57.20
2018-09-27T11:37:51.699Z,56.10
2018-09-27T11:40:20.091Z,56.80
2018-09-27T11:42:48.565Z,57.20
2018-09-27T11:45:16.870Z,56.80
2018-09-27T11:47:45.225Z,54.30
2018-09-27T11:50:13.589Z,56.50
2018-09-27T11:52:42.080Z,57.40
2018-09-27T11:55:10.952Z,57.60
2018-09-27T11:57:39.249Z,58.80
2018-09-27T12:00:08.448Z,60.70
2018-09-27T12:02:36.901Z,63.40
2018-09-27T12:05:05.320Z,58.10
2018-09-27T12:07:33.894Z,58.10
2018-09-27T12:10:02.447Z,57.30
2018-09-27T12:12:31.131Z,58.30
2018-09-27T12:14:59.684Z,59.40
2018-09-27T12:17:28.198Z,57.70
2018-09-27T12:19:56.581Z,59.00
2018-09-27T12:22:24.974Z,59.40
2018-09-27T12:24:53.311Z,58.90
2018-09-27T12:27:21.663Z,58.30
2018-09-27T12:29:49.988Z,58.50
2018-09-27T12:32:18.544Z,59.80
2018-09-27T12:34:46.936Z,59.70
2018-09-27T12:37:15.505Z,59.50
2018-09-27T12:39:43.872Z,58.90
2018-09-27T12:42:12.352Z,59.20
2018-09-27T12:44:40.648Z,59.30
2018-09-27T12:47:09.008Z,58.70
2018-09-27T12:49:37.381Z,57.70
2018-09-27T12:52:06.199Z,57.80
2018-09-27T12:54:34.326Z,57.00
2018-09-27T12:57:02.850Z,58.30
2018-09-27T12:59:31.250Z,57.70
2018-09-27T13:01:59.832Z,57.60
2018-09-27T13:04:28.227Z,57.40
2018-09-27T13:06:56.795Z,57.80
2018-09-27T13:09:25.204Z,57.90
2018-09-27T13:11:53.609Z,56.60
2018-09-27T13:14:21.993Z,55.80
2018-09-27T13:16:50.378Z,56.60
2018-09-27T13:19:18.995Z,54.60
2018-09-27T13:21:47.666Z,54.20
2018-09-27T13:24:16.021Z,54.40
2018-09-27T13:26:44.420Z,55.00
2018-09-27T13:29:12.773Z,55.30
2018-09-27T13:31:41.268Z,55.80
2018-09-27T13:34:09.675Z,54.70
2018-09-27T13:36:38.198Z,54.50
2018-09-27T13:39:08.378Z,53.30
2018-09-27T13:41:37.067Z,53.50
2018-09-27T13:44:05.454Z,53.60
2018-09-27T13:46:33.985Z,54.10
2018-09-27T13:49:02.398Z,54.50
2018-09-27T13:51:30.807Z,55.50
2018-09-27T13:53:59.443Z,56.20
2018-09-27T13:56:27.996Z,56.70
2018-09-27T13:58:56.603Z,55.80
2018-09-27T14:01:24.984Z,54.70
2018-09-27T14:03:53.362Z,55.30
2018-09-27T14:06:21.813Z,54.80
2018-09-27T14:08:50.362Z,53.60
2018-09-27T14:11:18.859Z,54.50
2018-09-27T14:13:47.176Z,54.10
2018-09-27T14:16:15.617Z,53.70
2018-09-27T14:18:44.095Z,55.80
2018-09-27T14:21:12.565Z,55.50
2018-09-27T14:23:40.922Z,54.90
2018-09-27T14:26:09.356Z,56.40
2018-09-27T14:28:37.768Z,57.80
2018-09-27T14:31:06.169Z,58.40
2018-09-27T14:33:34.669Z,58.60
2018-09-27T14:36:03.186Z,60.00
2018-09-27T14:38:31.708Z,59.90
2018-09-27T14:41:00.139Z,60.70
2018-09-27T14:43:28.587Z,60.40
2018-09-27T14:45:57.044Z,60.80
2018-09-27T14:48:25.432Z,60.20
2018-09-27T14:50:54.056Z,60.70
2018-09-27T14:53:22.454Z,61.80
2018-09-27T14:55:50.850Z,61.00
2018-09-27T14:58:19.237Z,59.40
2018-09-27T15:00:47.547Z,59.70
2018-09-27T15:03:15.951Z,58.20
2018-09-27T15:05:44.331Z,56.90
2018-09-27T15:08:12.701Z,56.50
2018-09-27T15:10:41.051Z,56.40
2018-09-27T15:13:09.464Z,56.60
2018-09-27T15:15:37.823Z,55.70
2018-09-27T15:18:06.376Z,56.10
2018-09-27T15:20:35.001Z,55.90
2018-09-27T15:23:03.344Z,56.10
2018-09-27T15:25:31.717Z,56.00
2018-09-27T15:28:00.146Z,56.20
2018-09-27T15:30:28.514Z,55.90
2018-09-27T15:32:56.909Z,55.50
2018-09-27T15:35:25.308Z,54.30
2018-09-27T15:37:53.738Z,54.70
2018-09-27T15:40:22.100Z,55.10
2018-09-27T15:42:50.576Z,55.90
2018-09-27T15:45:18.985Z,57.50
2018-09-27T15:47:47.326Z,58.50
2018-09-27T15:50:15.690Z,59.00
2018-09-27T15:52:44.096Z,59.20
2018-09-27T15:55:12.626Z,59.90
2018-09-27T15:57:41.156Z,59.40
2018-09-27T16:00:09.539Z,59.10
2018-09-27T16:02:37.890Z,58.30
2018-09-27T16:05:06.536Z,58.40
2018-09-27T16:07:34.929Z,58.00
2018-09-27T16:10:03.519Z,57.70
2018-09-27T16:12:32.136Z,57.80
2018-09-27T16:15:00.517Z,58.30
2018-09-27T16:17:29.039Z,59.40
2018-09-27T16:19:57.537Z,58.70
2018-09-27T16:22:25.946Z,58.90
2018-09-27T16:24:54.300Z,58.40
2018-09-27T16:27:22.766Z,59.90
2018-09-27T16:29:51.223Z,60.40
2018-09-27T16:32:19.582Z,61.50
2018-09-27T16:34:48.439Z,64.00
2018-09-27T16:37:16.837Z,66.00
2018-09-27T16:39:45.190Z,67.30
2018-09-27T16:42:13.600Z,68.50
2018-09-27T16:44:42.189Z,69.60
2018-09-27T16:47:10.568Z,70.70
2018-09-27T16:49:38.957Z,71.20
2018-09-27T16:52:07.407Z,71.90
2018-09-27T16:54:35.848Z,72.80
2018-09-27T16:57:04.244Z,72.90
2018-09-27T16:59:32.706Z,73.90
2018-09-27T17:02:01.088Z,74.30
2018-09-27T17:04:29.465Z,76.10
2018-09-27T17:06:57.921Z,76.60
2018-09-27T17:09:26.493Z,77.20
2018-09-27T17:11:54.904Z,78.20
2018-09-27T17:14:23.518Z,78.50
2018-09-27T17:16:51.983Z,79.20
2018-09-27T17:19:20.455Z,79.70
2018-09-27T17:21:48.934Z,79.80
2018-09-27T17:24:17.409Z,80.00
2018-09-27T17:26:45.781Z,80.80
2018-09-27T17:29:14.122Z,81.00
2018-09-27T17:31:42.530Z,81.30
2018-09-27T17:34:10.894Z,81.90
2018-09-27T17:36:39.801Z,82.10
2018-09-27T17:39:08.530Z,82.20
2018-09-27T17:41:36.971Z,82.40
2018-09-27T17:44:05.530Z,82.90
2018-09-27T17:46:34.318Z,82.80
2018-09-27T17:49:02.670Z,82.60
2018-09-27T17:51:31.107Z,82.60
2018-09-27T17:53:59.631Z,82.30
2018-09-27T17:56:28.057Z,82.50
2018-09-27T17:58:56.531Z,82.40
2018-09-27T18:01:24.926Z,82.30
2018-09-27T18:03:53.409Z,82.40
2018-09-27T18:06:22.100Z,82.80
2018-09-27T18:08:50.579Z,83.10
2018-09-27T18:11:19.132Z,83.30
2018-09-27T18:13:47.541Z,84.20
2018-09-27T18:16:16.304Z,85.70
2018-09-27T18:18:44.690Z,88.40
2018-09-27T18:21:13.152Z,90.00
2018-09-27T18:23:41.622Z,91.20
2018-09-27T18:26:10.028Z,91.70
2018-09-27T18:28:38.521Z,92.30
2018-09-27T18:31:06.969Z,93.40
2018-09-27T18:33:35.394Z,93.80
2018-09-27T18:36:03.870Z,94.60
2018-09-27T18:38:32.444Z,95.10
2018-09-27T18:41:00.806Z,96.00
2018-09-27T18:43:29.192Z,96.50
2018-09-27T18:45:57.665Z,97.00
2018-09-27T18:48:26.090Z,97.40
2018-09-27T18:50:54.520Z,98.10
2018-09-27T18:53:22.910Z,98.10
2018-09-27T18:55:51.405Z,98.70
2018-09-27T18:58:19.817Z,99.00
2018-09-27T19:00:48.480Z,99.10
2018-09-27T19:03:17.012Z,99.30
2018-09-27T19:05:45.432Z,99.50
2018-09-27T19:08:13.887Z,99.90
2018-09-27T19:10:42.279Z,99.90
2018-09-27T19:13:10.672Z,99.90
2018-09-27T19:15:39.251Z,99.90
2018-09-27T19:18:07.684Z,99.90
2018-09-27T19:20:36.343Z,99.90
2018-09-27T19:23:04.742Z,99.90
2018-09-27T19:25:33.125Z,99.90
2018-09-27T19:28:01.499Z,99.90
2018-09-27T19:30:29.888Z,99.90
2018-09-27T19:32:58.294Z,99.90
2018-09-27T19:35:26.884Z,99.90
2018-09-27T19:37:55.296Z,99.90
2018-09-27T19:40:23.747Z,99.90
2018-09-27T19:42:52.210Z,99.90
2018-09-27T19:45:20.577Z,99.90
2018-09-27T19:47:48.979Z,99.90
2018-09-27T19:50:17.413Z,99.90
2018-09-27T19:52:45.889Z,99.90
2018-09-27T19:55:14.279Z,99.90
2018-09-27T19:57:42.706Z,99.90
2018-09-27T20:00:11.511Z,99.90
2018-09-27T20:02:40.013Z,99.90
2018-09-27T20:05:08.422Z,99.90
2018-09-27T20:07:36.811Z,99.90
2018-09-27T20:10:05.174Z,99.90
2018-09-27T20:12:33.638Z,99.90
2018-09-27T20:15:02.153Z,99.90
2018-09-27T20:17:30.560Z,99.90
2018-09-27T20:19:58.994Z,99.90
2018-09-27T20:22:27.412Z,99.90
2018-09-27T20:24:55.799Z,99.90
2018-09-27T20:27:24.207Z,99.90
2018-09-27T20:29:52.653Z,99.90
2018-09-27T20:32:21.038Z,99.90
2018-09-27T20:34:49.525Z,99.90
2018-09-27T20:37:17.935Z,99.90
2018-09-27T20:39:46.406Z,99.90
2018-09-27T20:42:14.838Z,99.90
2018-09-27T20:44:43.180Z,99.90
2018-09-27T20:47:12.442Z,99.90
2018-09-27T20:49:40.882Z,99.90
2018-09-27T20:52:09.282Z,99.90
2018-09-27T20:54:37.665Z,99.90
2018-09-27T20:57:06.323Z,99.90
2018-09-27T20:59:34.674Z,99.90
2018-09-27T21:02:03.131Z,99.90
2018-09-27T21:04:31.544Z,99.90
2018-09-27T21:06:59.892Z,99.90
2018-09-27T21:09:28.264Z,99.90
2018-09-27T21:11:56.596Z,99.90
2018-09-27T21:14:24.969Z,99.90
2018-09-27T21:16:53.326Z,99.90
2018-09-27T21:19:21.894Z,99.90
2018-09-27T21:21:50.227Z,99.90
2018-09-27T21:24:18.736Z,99.90
2018-09-27T21:26:47.142Z,99.90
2018-09-27T21:29:15.582Z,99.90
2018-09-27T21:31:44.074Z,99.90
2018-09-27T21:34:12.537Z,99.90
2018-09-27T21:36:41.022Z,99.90
2018-09-27T21:39:09.366Z,99.90
2018-09-27T21:41:37.752Z,99.90
2018-09-27T21:44:06.170Z,99.90
2018-09-27T21:46:34.595Z,99.90
2018-09-27T21:49:02.975Z,99.90
2018-09-27T21:51:31.378Z,99.90
2018-09-27T21:53:59.796Z,99.90
2018-09-27T21:56:28.157Z,99.90
2018-09-27T21:58:56.514Z,99.90
2018-09-27T22:01:24.916Z,99.90
2018-09-27T22:03:53.468Z,99.90
2018-09-27T22:06:21.816Z,99.90
2018-09-27T22:08:50.414Z,99.90
2018-09-27T22:11:18.742Z,99.90
2018-09-27T22:13:47.314Z,99.90
2018-09-27T22:16:15.698Z,99.90
2018-09-27T22:18:44.051Z,99.90
2018-09-27T22:21:12.413Z,99.90
2018-09-27T22:23:40.786Z,99.90
2018-09-27T22:26:09.102Z,99.90
2018-09-27T22:28:37.458Z,99.90
2018-09-27T22:31:06.345Z,99.90
2018-09-27T22:33:34.766Z,99.90
2018-09-27T22:36:03.105Z,99.90
2018-09-27T22:38:31.619Z,99.90
2018-09-27T22:40:59.938Z,99.90
2018-09-27T22:43:28.292Z,99.90
2018-09-27T22:45:56.726Z,99.90
2018-09-27T22:48:25.057Z,99.90
2018-09-27T22:50:53.393Z,99.90
2018-09-27T22:53:21.808Z,99.90
2018-09-27T22:55:50.236Z,99.90
2018-09-27T22:58:18.565Z,99.90
2018-09-27T23:00:46.896Z,99.90
2018-09-27T23:03:15.202Z,99.90
2018-09-27T23:05:43.633Z,99.90
2018-09-27T23:08:11.934Z,99.90
2018-09-27T23:10:40.300Z,99.90
2018-09-27T23:13:08.638Z,99.90
2018-09-27T23:15:36.964Z,99.90
2018-09-27T23:18:05.347Z,99.90
2018-09-27T23:20:33.759Z,99.90
2018-09-27T23:23:02.368Z,99.90
2018-09-27T23:25:30.780Z,99.90
2018-09-27T23:27:59.251Z,99.90
2018-09-27T23:30:27.650Z,99.90
2018-09-27T23:32:55.977Z,99.90
2018-09-27T23:35:24.444Z,99.90
2018-09-27T23:37:52.801Z,99.90
2018-09-27T23:40:21.274Z,99.90
2018-09-27T23:42:49.619Z,99.90
2018-09-27T23:45:18.116Z,99.90
2018-09-27T23:47:46.439Z,99.90
2018-09-27T23:50:14.778Z,99.90
2018-09-27T23:52:43.243Z,99.90
2018-09-27T23:55:11.675Z,99.90
2018-09-27T23:57:40.412Z,99.90
